sensor_id;sensor_type;location;lat;lon;timestamp;temperature;humidity
19359;DHT22;9815;52.334;20.890;2022-09-01T00:00:43;12.70;99.90
19359;DHT22;9815;52.334;20.890;2022-09-01T00:03:15;12.70;99.90
19359;DHT22;9815;52.334;20.890;2022-09-01T00:05:44;12.70;99.90
19359;DHT22;9815;52.334;20.890;2022-09-01T00:08:17;12.60;99.90
19359;DHT22;9815;52.334;20.890;2022-09-01T00:10:45;12.50;99.90
19359;DHT22;9815;52.334;20.890;2022-09-01T00:13:15;12.40;99.90
19359;DHT22;9815;52.334;20.890;2022-09-01T00:15:44;12.40;99.90
19359;DHT22;9815;52.334;20.890;2022-09-01T00:18:12;12.30;99.90
19359;DHT22;9815;52.334;20.890;2022-09-01T00:20:41;12.30;99.90
19359;DHT22;9815;52.334;20.890;2022-09-01T00:23:10;12.30;99.90
19359;DHT22;9815;52.334;20.890;2022-09-01T00:25:38;12.30;99.90
19359;DHT22;9815;52.334;20.890;2022-09-01T00:28:06;12.30;99.90
19359;DHT22;9815;52.334;20.890;2022-09-01T00:30:36;12.20;99.90
19359;DHT22;9815;52.334;20.890;2022-09-01T00:33:05;12.20;99.90
19359;DHT22;9815;52.334;20.890;2022-09-01T00:35:34;12.20;99.90
19359;DHT22;9815;52.334;20.890;2022-09-01T00:38:03;12.20;99.90
19359;DHT22;9815;52.334;20.890;2022-09-01T00:40:31;12.10;99.90
19359;DHT22;9815;52.334;20.890;2022-09-01T00:43:00;12.10;99.90
19359;DHT22;9815;52.334;20.890;2022-09-01T00:45:28;12.10;99.90
19359;DHT22;9815;52.334;20.890;2022-09-01T00:47:58;12.00;99.90
19359;DHT22;9815;52.334;20.890;2022-09-01T00:50:26;12.00;99.90
19359;DHT22;9815;52.334;20.890;2022-09-01T00:52:55;12.00;99.90
19359;DHT22;9815;52.334;20.890;2022-09-01T00:55:28;12.00;99.90
19359;DHT22;9815;52.334;20.890;2022-09-01T00:57:59;12.00;99.90
19359;DHT22;9815;52.334;20.890;2022-09-01T01:00:30;11.90;99.90
19359;DHT22;9815;52.334;20.890;2022-09-01T01:03:01;11.90;99.90
19359;DHT22;9815;52.334;20.890;2022-09-01T01:05:31;11.80;99.90
19359;DHT22;9815;52.334;20.890;2022-09-01T01:08:01;11.80;99.90
19359;DHT22;9815;52.334;20.890;2022-09-01T01:10:36;11.80;99.90
19359;DHT22;9815;52.334;20.890;2022-09-01T01:13:10;11.70;99.90
19359;DHT22;9815;52.334;20.890;2022-09-01T01:15:40;11.70;99.90
19359;DHT22;9815;52.334;20.890;2022-09-01T01:18:11;11.60;99.90
19359;DHT22;9815;52.334;20.890;2022-09-01T01:20:42;11.60;99.90
19359;DHT22;9815;52.334;20.890;2022-09-01T01:23:35;11.50;99.90
19359;DHT22;9815;52.334;20.890;2022-09-01T01:26:09;11.50;99.90
19359;DHT22;9815;52.334;20.890;2022-09-01T01:28:41;11.50;99.90
19359;DHT22;9815;52.334;20.890;2022-09-01T01:31:11;11.40;99.90
19359;DHT22;9815;52.334;20.890;2022-09-01T01:33:43;11.30;99.90
19359;DHT22;9815;52.334;20.890;2022-09-01T01:36:15;11.20;99.90
19359;DHT22;9815;52.334;20.890;2022-09-01T01:38:48;11.10;99.90
19359;DHT22;9815;52.334;20.890;2022-09-01T01:41:19;11.00;99.90
19359;DHT22;9815;52.334;20.890;2022-09-01T01:43:48;10.90;99.90
19359;DHT22;9815;52.334;20.890;2022-09-01T01:46:18;10.90;99.90
19359;DHT22;9815;52.334;20.890;2022-09-01T01:48:48;10.80;99.90
19359;DHT22;9815;52.334;20.890;2022-09-01T01:51:19;10.80;99.90
19359;DHT22;9815;52.334;20.890;2022-09-01T01:53:50;10.90;99.90
19359;DHT22;9815;52.334;20.890;2022-09-01T01:56:22;10.90;99.90
19359;DHT22;9815;52.334;20.890;2022-09-01T01:58:52;10.90;99.90
19359;DHT22;9815;52.334;20.890;2022-09-01T02:01:22;10.90;99.90
19359;DHT22;9815;52.334;20.890;2022-09-01T02:03:51;10.90;99.90
19359;DHT22;9815;52.334;20.890;2022-09-01T02:06:22;11.00;99.90
19359;DHT22;9815;52.334;20.890;2022-09-01T02:08:55;10.90;99.90
19359;DHT22;9815;52.334;20.890;2022-09-01T02:11:26;10.90;99.90
19359;DHT22;9815;52.334;20.890;2022-09-01T02:13:55;10.80;99.90
19359;DHT22;9815;52.334;20.890;2022-09-01T02:16:25;10.80;99.90
19359;DHT22;9815;52.334;20.890;2022-09-01T02:18:55;10.60;99.90
19359;DHT22;9815;52.334;20.890;2022-09-01T02:21:24;10.50;99.90
19359;DHT22;9815;52.334;20.890;2022-09-01T02:23:54;10.40;99.90
19359;DHT22;9815;52.334;20.890;2022-09-01T02:26:29;10.30;99.90
19359;DHT22;9815;52.334;20.890;2022-09-01T02:28:59;10.20;99.90
19359;DHT22;9815;52.334;20.890;2022-09-01T02:31:31;10.10;99.90
19359;DHT22;9815;52.334;20.890;2022-09-01T02:34:02;10.00;99.90
19359;DHT22;9815;52.334;20.890;2022-09-01T02:36:31;10.00;99.90
19359;DHT22;9815;52.334;20.890;2022-09-01T02:39:03;9.90;99.90
19359;DHT22;9815;52.334;20.890;2022-09-01T02:41:35;9.90;99.90
19359;DHT22;9815;52.334;20.890;2022-09-01T02:44:04;9.80;99.90
19359;DHT22;9815;52.334;20.890;2022-09-01T02:46:38;9.80;99.90
19359;DHT22;9815;52.334;20.890;2022-09-01T02:49:09;9.70;99.90
19359;DHT22;9815;52.334;20.890;2022-09-01T02:51:42;9.60;99.90
19359;DHT22;9815;52.334;20.890;2022-09-01T02:54:12;9.60;99.90
19359;DHT22;9815;52.334;20.890;2022-09-01T02:56:46;9.60;99.90
19359;DHT22;9815;52.334;20.890;2022-09-01T02:59:16;9.60;99.90
19359;DHT22;9815;52.334;20.890;2022-09-01T03:01:48;9.50;99.90
19359;DHT22;9815;52.334;20.890;2022-09-01T03:04:17;9.50;99.90
19359;DHT22;9815;52.334;20.890;2022-09-01T03:06:46;9.50;99.90
19359;DHT22;9815;52.334;20.890;2022-09-01T03:09:17;9.50;99.90
19359;DHT22;9815;52.334;20.890;2022-09-01T03:11:48;9.40;99.90
19359;DHT22;9815;52.334;20.890;2022-09-01T03:14:17;9.40;99.90
19359;DHT22;9815;52.334;20.890;2022-09-01T03:16:46;9.30;99.90
19359;DHT22;9815;52.334;20.890;2022-09-01T03:19:15;9.30;99.90
19359;DHT22;9815;52.334;20.890;2022-09-01T03:21:46;9.30;99.90
19359;DHT22;9815;52.334;20.890;2022-09-01T03:24:19;9.40;99.90
19359;DHT22;9815;52.334;20.890;2022-09-01T03:26:51;9.30;99.90
19359;DHT22;9815;52.334;20.890;2022-09-01T03:29:20;9.30;99.90
19359;DHT22;9815;52.334;20.890;2022-09-01T03:31:48;9.40;99.90
19359;DHT22;9815;52.334;20.890;2022-09-01T03:34:17;9.40;99.90
19359;DHT22;9815;52.334;20.890;2022-09-01T03:36:52;9.40;99.90
19359;DHT22;9815;52.334;20.890;2022-09-01T03:39:26;9.40;99.90
19359;DHT22;9815;52.334;20.890;2022-09-01T03:41:57;9.40;99.90
19359;DHT22;9815;52.334;20.890;2022-09-01T03:44:26;9.50;99.90
19359;DHT22;9815;52.334;20.890;2022-09-01T03:46:54;9.50;99.90
19359;DHT22;9815;52.334;20.890;2022-09-01T03:49:24;9.40;99.90
19359;DHT22;9815;52.334;20.890;2022-09-01T03:51:55;9.40;99.90
19359;DHT22;9815;52.334;20.890;2022-09-01T03:54:25;9.30;99.90
19359;DHT22;9815;52.334;20.890;2022-09-01T03:56:58;9.30;99.90
19359;DHT22;9815;52.334;20.890;2022-09-01T03:59:28;9.20;99.90
19359;DHT22;9815;52.334;20.890;2022-09-01T04:01:57;9.20;99.90
19359;DHT22;9815;52.334;20.890;2022-09-01T04:04:26;9.10;99.90
19359;DHT22;9815;52.334;20.890;2022-09-01T04:06:58;9.10;99.90
19359;DHT22;9815;52.334;20.890;2022-09-01T04:09:28;9.00;99.90
19359;DHT22;9815;52.334;20.890;2022-09-01T04:11:58;8.90;99.90
19359;DHT22;9815;52.334;20.890;2022-09-01T04:14:26;9.00;99.90
19359;DHT22;9815;52.334;20.890;2022-09-01T04:16:56;8.90;99.90
19359;DHT22;9815;52.334;20.890;2022-09-01T04:19:42;8.90;99.90
19359;DHT22;9815;52.334;20.890;2022-09-01T04:22:10;9.00;99.90
19359;DHT22;9815;52.334;20.890;2022-09-01T04:24:41;9.00;99.90
19359;DHT22;9815;52.334;20.890;2022-09-01T04:27:14;8.90;99.90
19359;DHT22;9815;52.334;20.890;2022-09-01T04:29:44;8.90;99.90
19359;DHT22;9815;52.334;20.890;2022-09-01T04:32:13;8.90;99.90
19359;DHT22;9815;52.334;20.890;2022-09-01T04:34:46;9.00;99.90
19359;DHT22;9815;52.334;20.890;2022-09-01T04:37:17;9.00;99.90
19359;DHT22;9815;52.334;20.890;2022-09-01T04:39:54;9.10;99.90
19359;DHT22;9815;52.334;20.890;2022-09-01T04:42:27;9.10;99.90
19359;DHT22;9815;52.334;20.890;2022-09-01T04:45:00;9.10;99.90
19359;DHT22;9815;52.334;20.890;2022-09-01T04:47:42;9.10;99.90
19359;DHT22;9815;52.334;20.890;2022-09-01T04:50:16;9.20;99.90
19359;DHT22;9815;52.334;20.890;2022-09-01T04:53:04;9.30;99.90
19359;DHT22;9815;52.334;20.890;2022-09-01T04:55:39;9.40;99.90
19359;DHT22;9815;52.334;20.890;2022-09-01T04:58:13;9.40;99.90
19359;DHT22;9815;52.334;20.890;2022-09-01T05:00:45;9.50;99.90
19359;DHT22;9815;52.334;20.890;2022-09-01T05:03:18;9.60;99.90
19359;DHT22;9815;52.334;20.890;2022-09-01T05:06:04;9.70;99.90
19359;DHT22;9815;52.334;20.890;2022-09-01T05:08:33;9.80;99.90
19359;DHT22;9815;52.334;20.890;2022-09-01T05:11:06;9.90;99.90
19359;DHT22;9815;52.334;20.890;2022-09-01T05:13:46;10.00;99.90
19359;DHT22;9815;52.334;20.890;2022-09-01T05:16:18;10.10;99.90
19359;DHT22;9815;52.334;20.890;2022-09-01T05:18:53;10.20;99.90
19359;DHT22;9815;52.334;20.890;2022-09-01T05:21:26;10.30;99.90
19359;DHT22;9815;52.334;20.890;2022-09-01T05:23:58;10.40;99.90
19359;DHT22;9815;52.334;20.890;2022-09-01T05:26:29;10.50;99.90
19359;DHT22;9815;52.334;20.890;2022-09-01T05:29:03;10.70;99.90
19359;DHT22;9815;52.334;20.890;2022-09-01T05:31:37;10.80;99.90
19359;DHT22;9815;52.334;20.890;2022-09-01T05:34:07;10.90;99.90
19359;DHT22;9815;52.334;20.890;2022-09-01T05:36:42;11.10;99.90
19359;DHT22;9815;52.334;20.890;2022-09-01T05:39:12;11.20;99.90
19359;DHT22;9815;52.334;20.890;2022-09-01T05:41:40;11.30;99.90
19359;DHT22;9815;52.334;20.890;2022-09-01T05:44:11;11.40;99.90
19359;DHT22;9815;52.334;20.890;2022-09-01T05:46:40;11.50;99.90
19359;DHT22;9815;52.334;20.890;2022-09-01T05:49:11;11.60;99.90
19359;DHT22;9815;52.334;20.890;2022-09-01T05:51:44;11.60;99.90
19359;DHT22;9815;52.334;20.890;2022-09-01T05:54:20;11.70;99.90
19359;DHT22;9815;52.334;20.890;2022-09-01T05:56:51;11.70;99.90
19359;DHT22;9815;52.334;20.890;2022-09-01T05:59:26;11.80;99.90
19359;DHT22;9815;52.334;20.890;2022-09-01T06:02:01;12.00;99.90
19359;DHT22;9815;52.334;20.890;2022-09-01T06:04:30;12.10;99.90
19359;DHT22;9815;52.334;20.890;2022-09-01T06:07:03;12.20;99.90
19359;DHT22;9815;52.334;20.890;2022-09-01T06:09:38;12.30;99.90
19359;DHT22;9815;52.334;20.890;2022-09-01T06:12:09;12.50;99.90
19359;DHT22;9815;52.334;20.890;2022-09-01T06:14:46;12.70;99.90
19359;DHT22;9815;52.334;20.890;2022-09-01T06:17:16;12.90;99.90
19359;DHT22;9815;52.334;20.890;2022-09-01T06:19:49;13.00;99.90
19359;DHT22;9815;52.334;20.890;2022-09-01T06:22:18;13.10;99.90
19359;DHT22;9815;52.334;20.890;2022-09-01T06:24:48;13.20;99.90
19359;DHT22;9815;52.334;20.890;2022-09-01T06:27:28;13.30;99.90
19359;DHT22;9815;52.334;20.890;2022-09-01T06:29:58;13.30;99.90
19359;DHT22;9815;52.334;20.890;2022-09-01T06:32:32;13.40;99.90
19359;DHT22;9815;52.334;20.890;2022-09-01T06:35:05;13.40;99.90
19359;DHT22;9815;52.334;20.890;2022-09-01T06:37:36;13.50;99.90
19359;DHT22;9815;52.334;20.890;2022-09-01T06:40:08;13.50;99.90
19359;DHT22;9815;52.334;20.890;2022-09-01T06:42:44;13.70;99.60
19359;DHT22;9815;52.334;20.890;2022-09-01T06:45:15;13.80;99.10
19359;DHT22;9815;52.334;20.890;2022-09-01T06:47:45;13.90;99.70
19359;DHT22;9815;52.334;20.890;2022-09-01T06:50:16;14.10;97.30
19359;DHT22;9815;52.334;20.890;2022-09-01T06:53:06;14.30;96.20
19359;DHT22;9815;52.334;20.890;2022-09-01T06:55:59;14.40;96.00
19359;DHT22;9815;52.334;20.890;2022-09-01T06:58:29;14.40;96.00
19359;DHT22;9815;52.334;20.890;2022-09-01T07:01:05;14.50;97.00
19359;DHT22;9815;52.334;20.890;2022-09-01T07:03:34;14.50;96.50
19359;DHT22;9815;52.334;20.890;2022-09-01T07:06:14;14.50;95.20
19359;DHT22;9815;52.334;20.890;2022-09-01T07:09:16;14.60;95.30
19359;DHT22;9815;52.334;20.890;2022-09-01T07:12:16;14.70;95.10
19359;DHT22;9815;52.334;20.890;2022-09-01T07:14:54;14.80;96.30
19359;DHT22;9815;52.334;20.890;2022-09-01T07:17:47;14.80;96.40
19359;DHT22;9815;52.334;20.890;2022-09-01T07:20:21;14.90;95.30
19359;DHT22;9815;52.334;20.890;2022-09-01T07:22:53;14.90;95.10
19359;DHT22;9815;52.334;20.890;2022-09-01T07:25:36;15.00;94.20
19359;DHT22;9815;52.334;20.890;2022-09-01T07:28:32;15.10;93.40
19359;DHT22;9815;52.334;20.890;2022-09-01T07:31:04;15.20;95.00
19359;DHT22;9815;52.334;20.890;2022-09-01T07:33:59;15.40;94.00
19359;DHT22;9815;52.334;20.890;2022-09-01T07:36:50;15.40;93.70
19359;DHT22;9815;52.334;20.890;2022-09-01T07:39:43;15.60;92.20
19359;DHT22;9815;52.334;20.890;2022-09-01T07:42:30;15.70;92.10
19359;DHT22;9815;52.334;20.890;2022-09-01T07:45:40;15.90;93.20
19359;DHT22;9815;52.334;20.890;2022-09-01T07:48:17;16.20;90.60
19359;DHT22;9815;52.334;20.890;2022-09-01T07:51:11;16.40;86.50
19359;DHT22;9815;52.334;20.890;2022-09-01T07:54:00;16.60;86.80
19359;DHT22;9815;52.334;20.890;2022-09-01T07:56:29;16.80;81.10
19359;DHT22;9815;52.334;20.890;2022-09-01T07:59:03;16.80;82.30
19359;DHT22;9815;52.334;20.890;2022-09-01T08:01:34;16.90;77.80
19359;DHT22;9815;52.334;20.890;2022-09-01T08:04:03;16.70;75.80
19359;DHT22;9815;52.334;20.890;2022-09-01T08:06:33;16.70;75.30
19359;DHT22;9815;52.334;20.890;2022-09-01T08:09:07;16.80;74.30
19359;DHT22;9815;52.334;20.890;2022-09-01T08:11:43;17.00;71.60
19359;DHT22;9815;52.334;20.890;2022-09-01T08:14:32;17.10;71.70
19359;DHT22;9815;52.334;20.890;2022-09-01T08:17:00;17.10;72.60
19359;DHT22;9815;52.334;20.890;2022-09-01T08:19:49;17.30;70.50
19359;DHT22;9815;52.334;20.890;2022-09-01T08:22:34;17.40;76.40
19359;DHT22;9815;52.334;20.890;2022-09-01T08:25:13;17.20;69.50
19359;DHT22;9815;52.334;20.890;2022-09-01T08:27:42;17.10;72.10
19359;DHT22;9815;52.334;20.890;2022-09-01T08:30:12;17.00;71.90
19359;DHT22;9815;52.334;20.890;2022-09-01T08:32:42;17.10;73.10
19359;DHT22;9815;52.334;20.890;2022-09-01T08:35:11;17.00;68.40
19359;DHT22;9815;52.334;20.890;2022-09-01T08:37:43;16.90;72.00
19359;DHT22;9815;52.334;20.890;2022-09-01T08:40:14;17.10;70.60
19359;DHT22;9815;52.334;20.890;2022-09-01T08:42:52;17.20;70.20
19359;DHT22;9815;52.334;20.890;2022-09-01T08:45:28;17.10;71.10
19359;DHT22;9815;52.334;20.890;2022-09-01T08:48:11;17.10;71.40
19359;DHT22;9815;52.334;20.890;2022-09-01T08:51:06;17.50;68.10
19359;DHT22;9815;52.334;20.890;2022-09-01T08:54:06;17.90;66.30
19359;DHT22;9815;52.334;20.890;2022-09-01T08:56:39;18.00;64.90
19359;DHT22;9815;52.334;20.890;2022-09-01T08:59:10;18.00;66.50
19359;DHT22;9815;52.334;20.890;2022-09-01T09:02:43;18.00;68.00
19359;DHT22;9815;52.334;20.890;2022-09-01T09:05:34;18.10;68.10
19359;DHT22;9815;52.334;20.890;2022-09-01T09:08:37;17.70;59.60
19359;DHT22;9815;52.334;20.890;2022-09-01T09:11:17;17.80;63.70
19359;DHT22;9815;52.334;20.890;2022-09-01T09:13:57;17.60;64.60
19359;DHT22;9815;52.334;20.890;2022-09-01T09:16:30;17.80;67.10
19359;DHT22;9815;52.334;20.890;2022-09-01T09:19:02;18.20;63.70
19359;DHT22;9815;52.334;20.890;2022-09-01T09:21:34;18.60;61.40
19359;DHT22;9815;52.334;20.890;2022-09-01T09:24:08;19.00;61.70
19359;DHT22;9815;52.334;20.890;2022-09-01T09:26:38;19.50;62.10
19359;DHT22;9815;52.334;20.890;2022-09-01T09:29:10;19.90;56.40
19359;DHT22;9815;52.334;20.890;2022-09-01T09:31:39;19.90;57.80
19359;DHT22;9815;52.334;20.890;2022-09-01T09:34:28;19.50;55.30
19359;DHT22;9815;52.334;20.890;2022-09-01T09:37:14;19.70;53.10
19359;DHT22;9815;52.334;20.890;2022-09-01T09:39:42;19.60;53.30
19359;DHT22;9815;52.334;20.890;2022-09-01T09:42:13;19.40;52.60
19359;DHT22;9815;52.334;20.890;2022-09-01T09:44:43;19.30;54.60
19359;DHT22;9815;52.334;20.890;2022-09-01T09:47:33;19.40;54.50
19359;DHT22;9815;52.334;20.890;2022-09-01T09:50:18;19.70;53.50
19359;DHT22;9815;52.334;20.890;2022-09-01T09:52:48;19.80;53.00
19359;DHT22;9815;52.334;20.890;2022-09-01T09:55:22;19.60;52.80
19359;DHT22;9815;52.334;20.890;2022-09-01T09:57:54;19.70;51.90
19359;DHT22;9815;52.334;20.890;2022-09-01T10:00:25;19.80;52.10
19359;DHT22;9815;52.334;20.890;2022-09-01T10:02:56;19.60;52.20
19359;DHT22;9815;52.334;20.890;2022-09-01T10:05:33;19.70;53.30
19359;DHT22;9815;52.334;20.890;2022-09-01T10:08:03;20.20;50.80
19359;DHT22;9815;52.334;20.890;2022-09-01T10:10:38;20.70;49.40
19359;DHT22;9815;52.334;20.890;2022-09-01T10:13:11;20.60;49.00
19359;DHT22;9815;52.334;20.890;2022-09-01T10:15:43;20.60;50.20
19359;DHT22;9815;52.334;20.890;2022-09-01T10:18:19;20.70;52.00
19359;DHT22;9815;52.334;20.890;2022-09-01T10:20:57;20.20;52.30
19359;DHT22;9815;52.334;20.890;2022-09-01T10:23:29;20.20;53.10
19359;DHT22;9815;52.334;20.890;2022-09-01T10:26:02;20.40;51.60
19359;DHT22;9815;52.334;20.890;2022-09-01T10:28:44;21.00;50.10
19359;DHT22;9815;52.334;20.890;2022-09-01T10:31:17;20.90;49.80
19359;DHT22;9815;52.334;20.890;2022-09-01T10:33:46;21.40;47.90
19359;DHT22;9815;52.334;20.890;2022-09-01T10:36:16;20.70;46.70
19359;DHT22;9815;52.334;20.890;2022-09-01T10:38:46;21.20;47.00
19359;DHT22;9815;52.334;20.890;2022-09-01T10:41:51;22.00;46.30
19359;DHT22;9815;52.334;20.890;2022-09-01T10:44:28;21.60;45.50
19359;DHT22;9815;52.334;20.890;2022-09-01T10:47:02;21.90;45.20
19359;DHT22;9815;52.334;20.890;2022-09-01T10:53:03;22.30;45.60
19359;DHT22;9815;52.334;20.890;2022-09-01T10:55:43;21.20;46.30
19359;DHT22;9815;52.334;20.890;2022-09-01T10:58:35;21.20;45.90
19359;DHT22;9815;52.334;20.890;2022-09-01T11:02:08;21.10;45.00
19359;DHT22;9815;52.334;20.890;2022-09-01T11:05:17;21.30;44.20
19359;DHT22;9815;52.334;20.890;2022-09-01T11:07:46;20.70;44.70
19359;DHT22;9815;52.334;20.890;2022-09-01T11:10:42;20.70;44.00
19359;DHT22;9815;52.334;20.890;2022-09-01T11:13:42;21.50;43.80
19359;DHT22;9815;52.334;20.890;2022-09-01T11:16:34;22.30;44.80
19359;DHT22;9815;52.334;20.890;2022-09-01T11:19:34;21.30;42.90
19359;DHT22;9815;52.334;20.890;2022-09-01T11:22:31;19.90;46.00
19359;DHT22;9815;52.334;20.890;2022-09-01T11:34:03;19.30;47.20
19359;DHT22;9815;52.334;20.890;2022-09-01T11:36:35;19.30;47.80
19359;DHT22;9815;52.334;20.890;2022-09-01T11:39:07;19.40;47.00
19359;DHT22;9815;52.334;20.890;2022-09-01T11:41:49;20.10;47.80
19359;DHT22;9815;52.334;20.890;2022-09-01T11:44:27;21.10;44.20
19359;DHT22;9815;52.334;20.890;2022-09-01T11:47:01;22.20;42.00
19359;DHT22;9815;52.334;20.890;2022-09-01T11:49:32;22.70;40.10
19359;DHT22;9815;52.334;20.890;2022-09-01T11:52:03;23.10;39.80
19359;DHT22;9815;52.334;20.890;2022-09-01T11:54:38;22.90;38.40
19359;DHT22;9815;52.334;20.890;2022-09-01T11:57:22;21.60;41.70
19359;DHT22;9815;52.334;20.890;2022-09-01T11:59:51;20.50;44.20
19359;DHT22;9815;52.334;20.890;2022-09-01T12:02:21;20.40;45.20
19359;DHT22;9815;52.334;20.890;2022-09-01T12:04:52;20.00;45.80
19359;DHT22;9815;52.334;20.890;2022-09-01T12:07:40;19.40;45.30
19359;DHT22;9815;52.334;20.890;2022-09-01T12:10:14;19.10;46.70
19359;DHT22;9815;52.334;20.890;2022-09-01T12:12:44;18.90;48.20
19359;DHT22;9815;52.334;20.890;2022-09-01T12:15:18;19.20;48.20
19359;DHT22;9815;52.334;20.890;2022-09-01T12:17:48;19.90;46.50
19359;DHT22;9815;52.334;20.890;2022-09-01T12:20:26;20.60;44.70
19359;DHT22;9815;52.334;20.890;2022-09-01T12:23:02;21.10;43.30
19359;DHT22;9815;52.334;20.890;2022-09-01T12:25:32;21.50;41.20
19359;DHT22;9815;52.334;20.890;2022-09-01T12:28:03;22.20;40.60
19359;DHT22;9815;52.334;20.890;2022-09-01T12:30:32;22.40;38.70
19359;DHT22;9815;52.334;20.890;2022-09-01T12:33:06;22.30;39.00
19359;DHT22;9815;52.334;20.890;2022-09-01T12:35:52;22.60;38.80
19359;DHT22;9815;52.334;20.890;2022-09-01T12:38:39;23.00;36.40
19359;DHT22;9815;52.334;20.890;2022-09-01T12:41:25;23.00;37.00
19359;DHT22;9815;52.334;20.890;2022-09-01T12:43:55;22.90;36.90
19359;DHT22;9815;52.334;20.890;2022-09-01T12:46:43;23.30;39.20
19359;DHT22;9815;52.334;20.890;2022-09-01T12:49:16;23.30;37.50
19359;DHT22;9815;52.334;20.890;2022-09-01T12:51:46;22.60;38.80
19359;DHT22;9815;52.334;20.890;2022-09-01T12:54:23;21.80;39.60
19359;DHT22;9815;52.334;20.890;2022-09-01T12:56:52;21.60;40.70
19359;DHT22;9815;52.334;20.890;2022-09-01T12:59:24;20.80;41.90
19359;DHT22;9815;52.334;20.890;2022-09-01T13:02:26;20.60;43.70
19359;DHT22;9815;52.334;20.890;2022-09-01T13:04:54;20.30;44.10
19359;DHT22;9815;52.334;20.890;2022-09-01T13:07:43;19.80;45.10
19359;DHT22;9815;52.334;20.890;2022-09-01T13:10:12;19.40;46.00
19359;DHT22;9815;52.334;20.890;2022-09-01T13:12:42;19.20;47.40
19359;DHT22;9815;52.334;20.890;2022-09-01T13:15:12;19.20;47.80
19359;DHT22;9815;52.334;20.890;2022-09-01T13:17:40;19.20;48.00
19359;DHT22;9815;52.334;20.890;2022-09-01T13:20:09;19.30;47.80
19359;DHT22;9815;52.334;20.890;2022-09-01T13:22:39;19.80;47.60
19359;DHT22;9815;52.334;20.890;2022-09-01T13:25:08;20.40;44.90
19359;DHT22;9815;52.334;20.890;2022-09-01T13:27:39;20.70;44.90
19359;DHT22;9815;52.334;20.890;2022-09-01T13:30:11;21.10;43.90
19359;DHT22;9815;52.334;20.890;2022-09-01T13:32:40;21.90;41.50
19359;DHT22;9815;52.334;20.890;2022-09-01T13:35:28;22.10;39.80
19359;DHT22;9815;52.334;20.890;2022-09-01T13:37:56;22.30;40.00
19359;DHT22;9815;52.334;20.890;2022-09-01T13:40:25;22.20;39.50
19359;DHT22;9815;52.334;20.890;2022-09-01T13:42:55;21.60;41.60
19359;DHT22;9815;52.334;20.890;2022-09-01T13:45:23;20.70;43.10
19359;DHT22;9815;52.334;20.890;2022-09-01T13:47:52;19.90;45.80
19359;DHT22;9815;52.334;20.890;2022-09-01T13:50:41;19.60;46.00
19359;DHT22;9815;52.334;20.890;2022-09-01T13:53:29;19.50;46.80
19359;DHT22;9815;52.334;20.890;2022-09-01T13:55:57;19.30;46.10
19359;DHT22;9815;52.334;20.890;2022-09-01T13:58:27;19.50;47.50
19359;DHT22;9815;52.334;20.890;2022-09-01T14:00:56;19.80;45.70
19359;DHT22;9815;52.334;20.890;2022-09-01T14:03:26;19.90;46.10
19359;DHT22;9815;52.334;20.890;2022-09-01T14:05:55;20.10;44.10
19359;DHT22;9815;52.334;20.890;2022-09-01T14:08:24;20.60;43.80
19359;DHT22;9815;52.334;20.890;2022-09-01T14:10:53;20.50;43.80
19359;DHT22;9815;52.334;20.890;2022-09-01T14:13:22;20.60;45.00
19359;DHT22;9815;52.334;20.890;2022-09-01T14:15:53;20.30;44.80
19359;DHT22;9815;52.334;20.890;2022-09-01T14:18:21;20.20;44.00
19359;DHT22;9815;52.334;20.890;2022-09-01T14:21:02;20.10;43.90
19359;DHT22;9815;52.334;20.890;2022-09-01T14:23:31;20.30;44.50
19359;DHT22;9815;52.334;20.890;2022-09-01T14:25:59;20.50;43.60
19359;DHT22;9815;52.334;20.890;2022-09-01T14:28:27;20.60;41.20
19359;DHT22;9815;52.334;20.890;2022-09-01T14:30:57;20.80;41.40
19359;DHT22;9815;52.334;20.890;2022-09-01T14:33:24;21.00;40.00
19359;DHT22;9815;52.334;20.890;2022-09-01T14:35:53;20.60;40.00
19359;DHT22;9815;52.334;20.890;2022-09-01T14:38:21;20.40;41.00
19359;DHT22;9815;52.334;20.890;2022-09-01T14:40:49;20.40;41.70
19359;DHT22;9815;52.334;20.890;2022-09-01T14:43:18;20.50;42.40
19359;DHT22;9815;52.334;20.890;2022-09-01T14:45:47;20.40;41.70
19359;DHT22;9815;52.334;20.890;2022-09-01T14:48:18;20.30;43.00
19359;DHT22;9815;52.334;20.890;2022-09-01T14:50:47;20.40;43.30
19359;DHT22;9815;52.334;20.890;2022-09-01T14:53:17;20.60;43.70
19359;DHT22;9815;52.334;20.890;2022-09-01T14:55:45;20.60;43.50
19359;DHT22;9815;52.334;20.890;2022-09-01T14:58:18;20.50;42.40
19359;DHT22;9815;52.334;20.890;2022-09-01T15:00:47;20.10;42.70
19359;DHT22;9815;52.334;20.890;2022-09-01T15:03:17;19.90;43.20
19359;DHT22;9815;52.334;20.890;2022-09-01T15:05:48;19.70;44.10
19359;DHT22;9815;52.334;20.890;2022-09-01T15:08:17;19.70;45.00
19359;DHT22;9815;52.334;20.890;2022-09-01T15:10:45;19.60;45.60
19359;DHT22;9815;52.334;20.890;2022-09-01T15:13:14;19.40;44.00
19359;DHT22;9815;52.334;20.890;2022-09-01T15:15:42;19.50;45.40
19359;DHT22;9815;52.334;20.890;2022-09-01T15:18:10;19.50;44.40
19359;DHT22;9815;52.334;20.890;2022-09-01T15:20:41;19.60;45.30
19359;DHT22;9815;52.334;20.890;2022-09-01T15:23:13;19.50;45.10
19359;DHT22;9815;52.334;20.890;2022-09-01T15:25:42;19.40;45.50
19359;DHT22;9815;52.334;20.890;2022-09-01T15:28:11;19.20;45.50
19359;DHT22;9815;52.334;20.890;2022-09-01T15:30:41;19.10;45.70
19359;DHT22;9815;52.334;20.890;2022-09-01T15:33:11;19.10;46.20
19359;DHT22;9815;52.334;20.890;2022-09-01T15:35:44;19.10;46.90
19359;DHT22;9815;52.334;20.890;2022-09-01T15:38:13;19.10;46.10
19359;DHT22;9815;52.334;20.890;2022-09-01T15:40:44;19.10;45.90
19359;DHT22;9815;52.334;20.890;2022-09-01T15:43:25;19.10;46.00
19359;DHT22;9815;52.334;20.890;2022-09-01T15:45:54;19.00;45.80
19359;DHT22;9815;52.334;20.890;2022-09-01T15:48:24;19.00;45.80
19359;DHT22;9815;52.334;20.890;2022-09-01T15:51:01;19.10;47.50
19359;DHT22;9815;52.334;20.890;2022-09-01T15:53:34;19.00;46.60
19359;DHT22;9815;52.334;20.890;2022-09-01T15:56:02;19.00;46.40
19359;DHT22;9815;52.334;20.890;2022-09-01T15:58:30;18.90;45.70
19359;DHT22;9815;52.334;20.890;2022-09-01T16:01:19;18.90;46.10
19359;DHT22;9815;52.334;20.890;2022-09-01T16:03:48;18.90;47.90
19359;DHT22;9815;52.334;20.890;2022-09-01T16:06:18;18.80;48.50
19359;DHT22;9815;52.334;20.890;2022-09-01T16:08:47;18.70;46.00
19359;DHT22;9815;52.334;20.890;2022-09-01T16:11:15;18.60;46.40
19359;DHT22;9815;52.334;20.890;2022-09-01T16:13:43;18.60;46.70
19359;DHT22;9815;52.334;20.890;2022-09-01T16:16:30;18.50;46.80
19359;DHT22;9815;52.334;20.890;2022-09-01T16:19:17;18.50;47.20
19359;DHT22;9815;52.334;20.890;2022-09-01T16:21:53;18.50;47.10
19359;DHT22;9815;52.334;20.890;2022-09-01T16:24:24;18.40;48.40
19359;DHT22;9815;52.334;20.890;2022-09-01T16:26:52;18.40;48.40
19359;DHT22;9815;52.334;20.890;2022-09-01T16:29:31;18.40;49.60